sensor_id;sensor_type;location;lat;lon;timestamp;temperature;humidity
24426;DHT22;12611;44.446;26.000;2023-09-19T00:01:07;21.80;68.30
24426;DHT22;12611;44.446;26.000;2023-09-19T00:03:38;21.80;68.30
24426;DHT22;12611;44.446;26.000;2023-09-19T00:06:10;21.80;68.30
24426;DHT22;12611;44.446;26.000;2023-09-19T00:08:40;21.70;68.30
24426;DHT22;12611;44.446;26.000;2023-09-19T00:11:10;21.70;68.80
24426;DHT22;12611;44.446;26.000;2023-09-19T00:13:40;21.70;68.80
24426;DHT22;12611;44.446;26.000;2023-09-19T00:16:10;21.70;68.80
24426;DHT22;12611;44.446;26.000;2023-09-19T00:18:39;21.60;68.90
24426;DHT22;12611;44.446;26.000;2023-09-19T00:21:08;21.60;69.50
24426;DHT22;12611;44.446;26.000;2023-09-19T00:23:37;21.60;69.60
24426;DHT22;12611;44.446;26.000;2023-09-19T00:26:08;21.50;69.40
24426;DHT22;12611;44.446;26.000;2023-09-19T00:28:36;21.50;69.40
24426;DHT22;12611;44.446;26.000;2023-09-19T00:31:07;21.50;69.40
24426;DHT22;12611;44.446;26.000;2023-09-19T00:33:36;21.50;69.40
24426;DHT22;12611;44.446;26.000;2023-09-19T00:36:06;21.40;69.30
24426;DHT22;12611;44.446;26.000;2023-09-19T00:38:34;21.40;69.20
24426;DHT22;12611;44.446;26.000;2023-09-19T00:41:03;21.40;69.40
24426;DHT22;12611;44.446;26.000;2023-09-19T00:43:32;21.40;69.40
24426;DHT22;12611;44.446;26.000;2023-09-19T00:46:02;21.30;69.50
24426;DHT22;12611;44.446;26.000;2023-09-19T00:48:38;21.30;70.00
24426;DHT22;12611;44.446;26.000;2023-09-19T00:51:11;21.30;70.10
24426;DHT22;12611;44.446;26.000;2023-09-19T00:53:43;21.20;70.50
24426;DHT22;12611;44.446;26.000;2023-09-19T00:56:13;21.20;70.40
24426;DHT22;12611;44.446;26.000;2023-09-19T00:58:46;21.10;70.50
24426;DHT22;12611;44.446;26.000;2023-09-19T01:01:14;21.10;70.80
24426;DHT22;12611;44.446;26.000;2023-09-19T01:03:46;21.00;71.00
24426;DHT22;12611;44.446;26.000;2023-09-19T01:06:15;21.00;70.90
24426;DHT22;12611;44.446;26.000;2023-09-19T01:08:45;21.00;70.90
24426;DHT22;12611;44.446;26.000;2023-09-19T01:11:17;20.90;71.00
24426;DHT22;12611;44.446;26.000;2023-09-19T01:13:55;20.90;71.10
24426;DHT22;12611;44.446;26.000;2023-09-19T01:16:44;20.80;71.30
24426;DHT22;12611;44.446;26.000;2023-09-19T01:19:50;20.80;71.10
24426;DHT22;12611;44.446;26.000;2023-09-19T01:22:32;20.80;71.50
24426;DHT22;12611;44.446;26.000;2023-09-19T01:28:20;20.70;71.60
24426;DHT22;12611;44.446;26.000;2023-09-19T01:31:02;20.70;71.50
24426;DHT22;12611;44.446;26.000;2023-09-19T01:33:58;20.70;71.50
24426;DHT22;12611;44.446;26.000;2023-09-19T01:36:29;20.60;71.40
24426;DHT22;12611;44.446;26.000;2023-09-19T01:38:57;20.60;71.60
24426;DHT22;12611;44.446;26.000;2023-09-19T01:41:42;20.60;72.00
24426;DHT22;12611;44.446;26.000;2023-09-19T01:44:19;20.50;71.90
24426;DHT22;12611;44.446;26.000;2023-09-19T01:46:52;20.50;72.10
24426;DHT22;12611;44.446;26.000;2023-09-19T01:49:32;20.50;72.00
24426;DHT22;12611;44.446;26.000;2023-09-19T01:52:09;20.40;72.10
24426;DHT22;12611;44.446;26.000;2023-09-19T01:54:45;20.40;72.20
24426;DHT22;12611;44.446;26.000;2023-09-19T01:57:20;20.40;72.10
24426;DHT22;12611;44.446;26.000;2023-09-19T02:00:00;20.40;72.10
24426;DHT22;12611;44.446;26.000;2023-09-19T02:02:36;20.40;73.00
24426;DHT22;12611;44.446;26.000;2023-09-19T02:05:05;20.40;72.20
24426;DHT22;12611;44.446;26.000;2023-09-19T02:07:34;20.30;72.20
24426;DHT22;12611;44.446;26.000;2023-09-19T02:10:06;20.30;72.20
24426;DHT22;12611;44.446;26.000;2023-09-19T02:12:37;20.30;72.10
24426;DHT22;12611;44.446;26.000;2023-09-19T02:15:06;20.20;72.10
24426;DHT22;12611;44.446;26.000;2023-09-19T02:17:36;20.20;72.10
24426;DHT22;12611;44.446;26.000;2023-09-19T02:20:06;20.20;72.10
24426;DHT22;12611;44.446;26.000;2023-09-19T02:22:41;20.20;72.20
24426;DHT22;12611;44.446;26.000;2023-09-19T02:25:13;20.20;72.20
24426;DHT22;12611;44.446;26.000;2023-09-19T02:27:42;20.10;72.40
24426;DHT22;12611;44.446;26.000;2023-09-19T02:30:12;20.10;72.50
24426;DHT22;12611;44.446;26.000;2023-09-19T02:32:44;20.00;72.80
24426;DHT22;12611;44.446;26.000;2023-09-19T02:35:13;20.00;72.80
24426;DHT22;12611;44.446;26.000;2023-09-19T02:37:42;20.00;72.70
24426;DHT22;12611;44.446;26.000;2023-09-19T02:40:12;19.90;72.70
24426;DHT22;12611;44.446;26.000;2023-09-19T02:42:54;19.90;72.60
24426;DHT22;12611;44.446;26.000;2023-09-19T02:45:25;19.90;72.70
24426;DHT22;12611;44.446;26.000;2023-09-19T02:47:55;19.90;72.60
24426;DHT22;12611;44.446;26.000;2023-09-19T02:50:24;19.80;72.50
24426;DHT22;12611;44.446;26.000;2023-09-19T02:52:52;19.80;72.50
24426;DHT22;12611;44.446;26.000;2023-09-19T02:55:21;19.80;72.40
24426;DHT22;12611;44.446;26.000;2023-09-19T02:57:53;19.80;72.50
24426;DHT22;12611;44.446;26.000;2023-09-19T03:00:23;19.80;72.50
24426;DHT22;12611;44.446;26.000;2023-09-19T03:02:54;19.80;72.50
24426;DHT22;12611;44.446;26.000;2023-09-19T03:05:26;19.80;72.70
24426;DHT22;12611;44.446;26.000;2023-09-19T03:07:57;19.80;72.70
24426;DHT22;12611;44.446;26.000;2023-09-19T03:10:28;19.70;72.50
24426;DHT22;12611;44.446;26.000;2023-09-19T03:12:58;19.70;72.60
24426;DHT22;12611;44.446;26.000;2023-09-19T03:15:27;19.70;72.70
24426;DHT22;12611;44.446;26.000;2023-09-19T03:17:57;19.70;72.80
24426;DHT22;12611;44.446;26.000;2023-09-19T03:20:26;19.70;73.00
24426;DHT22;12611;44.446;26.000;2023-09-19T03:22:55;19.60;73.00
24426;DHT22;12611;44.446;26.000;2023-09-19T03:25:24;19.60;73.10
24426;DHT22;12611;44.446;26.000;2023-09-19T03:27:52;19.60;73.40
24426;DHT22;12611;44.446;26.000;2023-09-19T03:30:21;19.60;73.40
24426;DHT22;12611;44.446;26.000;2023-09-19T03:32:49;19.50;73.30
24426;DHT22;12611;44.446;26.000;2023-09-19T03:35:19;19.50;73.30
24426;DHT22;12611;44.446;26.000;2023-09-19T03:37:48;19.50;73.30
24426;DHT22;12611;44.446;26.000;2023-09-19T03:40:17;19.50;73.30
24426;DHT22;12611;44.446;26.000;2023-09-19T03:42:47;19.50;73.60
24426;DHT22;12611;44.446;26.000;2023-09-19T03:45:16;19.50;73.30
24426;DHT22;12611;44.446;26.000;2023-09-19T03:47:45;19.40;73.30
24426;DHT22;12611;44.446;26.000;2023-09-19T03:50:15;19.40;73.30
24426;DHT22;12611;44.446;26.000;2023-09-19T03:52:46;19.40;73.40
24426;DHT22;12611;44.446;26.000;2023-09-19T03:55:15;19.40;73.50
24426;DHT22;12611;44.446;26.000;2023-09-19T03:57:48;19.40;73.50
24426;DHT22;12611;44.446;26.000;2023-09-19T04:03:55;19.30;73.60
24426;DHT22;12611;44.446;26.000;2023-09-19T04:06:24;19.30;73.80
24426;DHT22;12611;44.446;26.000;2023-09-19T04:08:56;19.20;73.80
24426;DHT22;12611;44.446;26.000;2023-09-19T04:11:24;19.20;73.80
24426;DHT22;12611;44.446;26.000;2023-09-19T04:13:53;19.20;73.80
24426;DHT22;12611;44.446;26.000;2023-09-19T04:16:22;19.20;74.10
24426;DHT22;12611;44.446;26.000;2023-09-19T04:18:51;19.20;74.10
24426;DHT22;12611;44.446;26.000;2023-09-19T04:21:19;19.20;74.30
24426;DHT22;12611;44.446;26.000;2023-09-19T04:23:48;19.20;74.70
24426;DHT22;12611;44.446;26.000;2023-09-19T04:26:18;19.20;74.90
24426;DHT22;12611;44.446;26.000;2023-09-19T04:28:49;19.10;74.90
24426;DHT22;12611;44.446;26.000;2023-09-19T04:31:18;19.10;75.00
24426;DHT22;12611;44.446;26.000;2023-09-19T04:33:48;19.10;74.90
24426;DHT22;12611;44.446;26.000;2023-09-19T04:36:16;19.10;74.80
24426;DHT22;12611;44.446;26.000;2023-09-19T04:39:01;19.10;74.80
24426;DHT22;12611;44.446;26.000;2023-09-19T04:41:33;19.20;74.90
24426;DHT22;12611;44.446;26.000;2023-09-19T04:44:04;19.20;74.80
24426;DHT22;12611;44.446;26.000;2023-09-19T04:46:33;19.20;74.80
24426;DHT22;12611;44.446;26.000;2023-09-19T04:49:04;19.30;74.90
24426;DHT22;12611;44.446;26.000;2023-09-19T04:51:35;19.30;75.00
24426;DHT22;12611;44.446;26.000;2023-09-19T04:54:04;19.40;75.00
24426;DHT22;12611;44.446;26.000;2023-09-19T04:56:35;19.40;75.10
24426;DHT22;12611;44.446;26.000;2023-09-19T04:59:07;19.50;75.10
24426;DHT22;12611;44.446;26.000;2023-09-19T05:01:38;19.50;75.20
24426;DHT22;12611;44.446;26.000;2023-09-19T05:04:07;19.60;75.40
24426;DHT22;12611;44.446;26.000;2023-09-19T05:06:35;19.60;75.70
24426;DHT22;12611;44.446;26.000;2023-09-19T05:09:10;19.80;75.80
24426;DHT22;12611;44.446;26.000;2023-09-19T05:11:40;19.80;75.90
24426;DHT22;12611;44.446;26.000;2023-09-19T05:14:09;19.90;75.90
24426;DHT22;12611;44.446;26.000;2023-09-19T05:16:38;19.90;76.30
24426;DHT22;12611;44.446;26.000;2023-09-19T05:19:08;20.00;76.90
24426;DHT22;12611;44.446;26.000;2023-09-19T05:21:39;20.10;76.90
24426;DHT22;12611;44.446;26.000;2023-09-19T05:24:09;20.10;76.90
24426;DHT22;12611;44.446;26.000;2023-09-19T05:26:39;20.20;76.80
24426;DHT22;12611;44.446;26.000;2023-09-19T05:29:08;20.30;76.80
24426;DHT22;12611;44.446;26.000;2023-09-19T05:31:37;20.40;76.90
24426;DHT22;12611;44.446;26.000;2023-09-19T05:34:08;20.40;76.80
24426;DHT22;12611;44.446;26.000;2023-09-19T05:36:36;20.50;76.90
24426;DHT22;12611;44.446;26.000;2023-09-19T05:39:06;20.60;77.00
24426;DHT22;12611;44.446;26.000;2023-09-19T05:41:36;20.70;77.20
24426;DHT22;12611;44.446;26.000;2023-09-19T05:44:09;20.80;78.00
24426;DHT22;12611;44.446;26.000;2023-09-19T05:46:38;20.80;77.10
24426;DHT22;12611;44.446;26.000;2023-09-19T05:49:07;20.90;77.30
24426;DHT22;12611;44.446;26.000;2023-09-19T05:51:35;21.00;77.30
24426;DHT22;12611;44.446;26.000;2023-09-19T05:54:04;21.00;77.20
24426;DHT22;12611;44.446;26.000;2023-09-19T05:56:32;21.10;77.00
24426;DHT22;12611;44.446;26.000;2023-09-19T05:59:01;21.20;77.30
24426;DHT22;12611;44.446;26.000;2023-09-19T06:01:31;21.20;77.80
24426;DHT22;12611;44.446;26.000;2023-09-19T06:04:01;21.30;76.90
24426;DHT22;12611;44.446;26.000;2023-09-19T06:06:31;21.40;76.90
24426;DHT22;12611;44.446;26.000;2023-09-19T06:09:00;21.50;76.80
24426;DHT22;12611;44.446;26.000;2023-09-19T06:11:29;21.60;76.90
24426;DHT22;12611;44.446;26.000;2023-09-19T06:13:59;21.70;76.60
24426;DHT22;12611;44.446;26.000;2023-09-19T06:16:30;21.80;76.50
24426;DHT22;12611;44.446;26.000;2023-09-19T06:19:00;21.80;76.30
24426;DHT22;12611;44.446;26.000;2023-09-19T06:21:29;21.90;76.20
24426;DHT22;12611;44.446;26.000;2023-09-19T06:23:59;22.00;76.10
24426;DHT22;12611;44.446;26.000;2023-09-19T06:26:27;22.10;75.90
24426;DHT22;12611;44.446;26.000;2023-09-19T06:28:57;22.10;75.80
24426;DHT22;12611;44.446;26.000;2023-09-19T06:31:27;22.20;75.60
24426;DHT22;12611;44.446;26.000;2023-09-19T06:33:57;22.30;75.50
24426;DHT22;12611;44.446;26.000;2023-09-19T06:36:26;22.30;75.30
24426;DHT22;12611;44.446;26.000;2023-09-19T06:38:54;22.40;75.10
24426;DHT22;12611;44.446;26.000;2023-09-19T06:41:22;22.50;75.10
24426;DHT22;12611;44.446;26.000;2023-09-19T06:43:52;22.50;74.90
24426;DHT22;12611;44.446;26.000;2023-09-19T06:46:21;22.60;74.80
24426;DHT22;12611;44.446;26.000;2023-09-19T06:48:50;22.60;74.60
24426;DHT22;12611;44.446;26.000;2023-09-19T06:51:21;22.70;74.50
24426;DHT22;12611;44.446;26.000;2023-09-19T06:53:50;22.80;74.10
24426;DHT22;12611;44.446;26.000;2023-09-19T06:56:21;22.80;73.90
24426;DHT22;12611;44.446;26.000;2023-09-19T06:58:51;22.90;73.90
24426;DHT22;12611;44.446;26.000;2023-09-19T07:01:20;23.00;73.70
24426;DHT22;12611;44.446;26.000;2023-09-19T07:03:49;23.10;73.60
24426;DHT22;12611;44.446;26.000;2023-09-19T07:06:17;23.10;73.00
24426;DHT22;12611;44.446;26.000;2023-09-19T07:08:47;23.20;73.00
24426;DHT22;12611;44.446;26.000;2023-09-19T07:11:17;23.20;72.30
24426;DHT22;12611;44.446;26.000;2023-09-19T07:13:46;23.30;71.90
24426;DHT22;12611;44.446;26.000;2023-09-19T07:16:15;23.30;71.10
24426;DHT22;12611;44.446;26.000;2023-09-19T07:18:54;23.30;70.60
24426;DHT22;12611;44.446;26.000;2023-09-19T07:21:23;23.40;70.50
24426;DHT22;12611;44.446;26.000;2023-09-19T07:23:54;23.40;70.50
24426;DHT22;12611;44.446;26.000;2023-09-19T07:26:22;23.40;70.70
24426;DHT22;12611;44.446;26.000;2023-09-19T07:28:52;23.50;70.80
24426;DHT22;12611;44.446;26.000;2023-09-19T07:31:20;23.50;70.70
24426;DHT22;12611;44.446;26.000;2023-09-19T07:33:50;23.50;70.30
24426;DHT22;12611;44.446;26.000;2023-09-19T07:36:18;23.70;70.50
24426;DHT22;12611;44.446;26.000;2023-09-19T07:38:47;23.70;70.50
24426;DHT22;12611;44.446;26.000;2023-09-19T07:41:17;23.70;70.20
24426;DHT22;12611;44.446;26.000;2023-09-19T07:43:45;23.80;70.20
24426;DHT22;12611;44.446;26.000;2023-09-19T07:46:14;23.90;70.10
24426;DHT22;12611;44.446;26.000;2023-09-19T07:48:42;23.90;70.10
24426;DHT22;12611;44.446;26.000;2023-09-19T07:51:16;24.00;70.00
24426;DHT22;12611;44.446;26.000;2023-09-19T07:53:44;24.00;70.00
24426;DHT22;12611;44.446;26.000;2023-09-19T07:56:13;24.00;69.90
24426;DHT22;12611;44.446;26.000;2023-09-19T07:58:43;24.00;69.70
24426;DHT22;12611;44.446;26.000;2023-09-19T08:03:44;24.10;69.20
24426;DHT22;12611;44.446;26.000;2023-09-19T08:06:16;24.10;69.30
24426;DHT22;12611;44.446;26.000;2023-09-19T08:08:46;24.10;69.40
24426;DHT22;12611;44.446;26.000;2023-09-19T08:11:16;24.20;69.30
24426;DHT22;12611;44.446;26.000;2023-09-19T08:13:50;24.30;68.60
24426;DHT22;12611;44.446;26.000;2023-09-19T08:16:19;24.30;68.70
24426;DHT22;12611;44.446;26.000;2023-09-19T08:18:49;24.40;68.30
24426;DHT22;12611;44.446;26.000;2023-09-19T08:21:22;24.50;68.30
24426;DHT22;12611;44.446;26.000;2023-09-19T08:23:51;24.50;67.90
24426;DHT22;12611;44.446;26.000;2023-09-19T08:26:21;24.60;68.20
24426;DHT22;12611;44.446;26.000;2023-09-19T08:28:53;24.60;67.70
24426;DHT22;12611;44.446;26.000;2023-09-19T08:31:22;24.70;67.00
24426;DHT22;12611;44.446;26.000;2023-09-19T08:33:53;24.80;66.70
24426;DHT22;12611;44.446;26.000;2023-09-19T08:36:23;24.80;66.50
24426;DHT22;12611;44.446;26.000;2023-09-19T08:38:51;24.90;66.70
24426;DHT22;12611;44.446;26.000;2023-09-19T08:41:20;25.00;66.10
24426;DHT22;12611;44.446;26.000;2023-09-19T08:43:49;25.10;66.00
24426;DHT22;12611;44.446;26.000;2023-09-19T08:46:20;25.20;66.00
24426;DHT22;12611;44.446;26.000;2023-09-19T08:49:00;25.20;65.70
24426;DHT22;12611;44.446;26.000;2023-09-19T08:51:39;25.30;65.70
24426;DHT22;12611;44.446;26.000;2023-09-19T08:54:19;25.40;65.10
24426;DHT22;12611;44.446;26.000;2023-09-19T08:56:50;25.50;65.00
24426;DHT22;12611;44.446;26.000;2023-09-19T08:59:21;25.60;65.00
24426;DHT22;12611;44.446;26.000;2023-09-19T09:01:55;25.70;64.70
24426;DHT22;12611;44.446;26.000;2023-09-19T09:04:25;25.80;63.80
24426;DHT22;12611;44.446;26.000;2023-09-19T09:06:54;25.80;63.90
24426;DHT22;12611;44.446;26.000;2023-09-19T09:09:25;25.90;63.80
24426;DHT22;12611;44.446;26.000;2023-09-19T09:11:54;25.90;63.00
24426;DHT22;12611;44.446;26.000;2023-09-19T09:14:24;26.00;62.10
24426;DHT22;12611;44.446;26.000;2023-09-19T09:16:57;26.00;61.80
24426;DHT22;12611;44.446;26.000;2023-09-19T09:19:27;26.00;61.80
24426;DHT22;12611;44.446;26.000;2023-09-19T09:22:06;26.00;61.80
24426;DHT22;12611;44.446;26.000;2023-09-19T09:24:35;26.00;61.20
24426;DHT22;12611;44.446;26.000;2023-09-19T09:27:06;26.00;60.00
24426;DHT22;12611;44.446;26.000;2023-09-19T09:29:42;26.00;59.50
24426;DHT22;12611;44.446;26.000;2023-09-19T09:32:19;26.00;59.00
24426;DHT22;12611;44.446;26.000;2023-09-19T09:34:50;26.00;58.80
24426;DHT22;12611;44.446;26.000;2023-09-19T09:37:23;26.00;58.80
24426;DHT22;12611;44.446;26.000;2023-09-19T09:39:56;25.90;58.70
24426;DHT22;12611;44.446;26.000;2023-09-19T09:42:30;26.00;58.60
24426;DHT22;12611;44.446;26.000;2023-09-19T09:45:13;26.00;59.20
24426;DHT22;12611;44.446;26.000;2023-09-19T09:47:44;26.10;59.40
24426;DHT22;12611;44.446;26.000;2023-09-19T09:50:28;26.10;59.80
24426;DHT22;12611;44.446;26.000;2023-09-19T09:53:05;26.20;58.90
24426;DHT22;12611;44.446;26.000;2023-09-19T09:55:59;26.30;59.20
24426;DHT22;12611;44.446;26.000;2023-09-19T09:58:33;26.30;57.40
24426;DHT22;12611;44.446;26.000;2023-09-19T10:01:04;26.40;57.60
24426;DHT22;12611;44.446;26.000;2023-09-19T10:03:39;26.40;57.30
24426;DHT22;12611;44.446;26.000;2023-09-19T10:06:12;26.50;57.80
24426;DHT22;12611;44.446;26.000;2023-09-19T10:09:02;26.50;58.20
24426;DHT22;12611;44.446;26.000;2023-09-19T10:11:42;26.60;58.30
24426;DHT22;12611;44.446;26.000;2023-09-19T10:14:12;26.70;58.10
24426;DHT22;12611;44.446;26.000;2023-09-19T10:16:46;26.70;58.00
24426;DHT22;12611;44.446;26.000;2023-09-19T10:19:23;26.80;58.10
24426;DHT22;12611;44.446;26.000;2023-09-19T10:21:55;26.80;58.30
24426;DHT22;12611;44.446;26.000;2023-09-19T10:24:26;26.90;58.50
24426;DHT22;12611;44.446;26.000;2023-09-19T10:27:00;26.90;57.60
24426;DHT22;12611;44.446;26.000;2023-09-19T10:29:32;26.90;56.90
24426;DHT22;12611;44.446;26.000;2023-09-19T10:32:04;27.00;56.70
24426;DHT22;12611;44.446;26.000;2023-09-19T10:34:38;27.10;57.00
24426;DHT22;12611;44.446;26.000;2023-09-19T10:37:12;27.10;56.50
24426;DHT22;12611;44.446;26.000;2023-09-19T10:39:45;27.10;55.80
24426;DHT22;12611;44.446;26.000;2023-09-19T10:42:19;27.20;55.10
24426;DHT22;12611;44.446;26.000;2023-09-19T10:44:51;27.20;55.40
24426;DHT22;12611;44.446;26.000;2023-09-19T10:47:21;27.20;55.70
24426;DHT22;12611;44.446;26.000;2023-09-19T10:49:53;27.30;55.30
24426;DHT22;12611;44.446;26.000;2023-09-19T10:52:24;27.30;55.10
24426;DHT22;12611;44.446;26.000;2023-09-19T10:54:55;27.30;55.20
24426;DHT22;12611;44.446;26.000;2023-09-19T10:57:26;27.40;55.00
24426;DHT22;12611;44.446;26.000;2023-09-19T11:00:03;27.50;54.40
24426;DHT22;12611;44.446;26.000;2023-09-19T11:03:16;27.50;53.70
24426;DHT22;12611;44.446;26.000;2023-09-19T11:06:09;27.50;53.20
24426;DHT22;12611;44.446;26.000;2023-09-19T11:09:01;27.50;52.90
24426;DHT22;12611;44.446;26.000;2023-09-19T11:11:50;27.50;53.30
24426;DHT22;12611;44.446;26.000;2023-09-19T11:14:30;27.60;53.80
24426;DHT22;12611;44.446;26.000;2023-09-19T11:17:30;27.70;53.90
24426;DHT22;12611;44.446;26.000;2023-09-19T11:20:26;27.70;52.70
24426;DHT22;12611;44.446;26.000;2023-09-19T11:23:23;27.70;52.40
24426;DHT22;12611;44.446;26.000;2023-09-19T11:25:57;27.80;52.90
24426;DHT22;12611;44.446;26.000;2023-09-19T11:28:30;27.80;52.90
24426;DHT22;12611;44.446;26.000;2023-09-19T11:30:58;27.80;52.90
24426;DHT22;12611;44.446;26.000;2023-09-19T11:33:28;27.90;53.10
24426;DHT22;12611;44.446;26.000;2023-09-19T11:35:59;27.90;52.90
24426;DHT22;12611;44.446;26.000;2023-09-19T11:38:58;28.00;52.90
24426;DHT22;12611;44.446;26.000;2023-09-19T11:41:38;28.10;53.10
24426;DHT22;12611;44.446;26.000;2023-09-19T11:44:34;28.20;53.10
24426;DHT22;12611;44.446;26.000;2023-09-19T11:47:06;28.20;52.30
24426;DHT22;12611;44.446;26.000;2023-09-19T11:49:40;28.20;52.00
24426;DHT22;12611;44.446;26.000;2023-09-19T11:52:11;28.30;51.70
24426;DHT22;12611;44.446;26.000;2023-09-19T11:54:42;28.30;51.40
24426;DHT22;12611;44.446;26.000;2023-09-19T11:57:20;28.30;50.90
24426;DHT22;12611;44.446;26.000;2023-09-19T11:59:52;28.30;50.60
24426;DHT22;12611;44.446;26.000;2023-09-19T12:02:37;28.30;50.70
24426;DHT22;12611;44.446;26.000;2023-09-19T12:05:08;28.40;49.90
24426;DHT22;12611;44.446;26.000;2023-09-19T12:07:42;28.40;49.70
24426;DHT22;12611;44.446;26.000;2023-09-19T12:10:14;28.40;49.70
24426;DHT22;12611;44.446;26.000;2023-09-19T12:12:50;28.40;49.00
24426;DHT22;12611;44.446;26.000;2023-09-19T12:15:23;28.40;50.50
24426;DHT22;12611;44.446;26.000;2023-09-19T12:17:55;28.40;49.30
24426;DHT22;12611;44.446;26.000;2023-09-19T12:20:24;28.40;49.40
24426;DHT22;12611;44.446;26.000;2023-09-19T12:22:53;28.40;49.20
24426;DHT22;12611;44.446;26.000;2023-09-19T12:25:26;28.40;49.60
24426;DHT22;12611;44.446;26.000;2023-09-19T12:27:54;28.50;49.90
24426;DHT22;12611;44.446;26.000;2023-09-19T12:30:27;28.40;49.70
24426;DHT22;12611;44.446;26.000;2023-09-19T12:33:00;28.40;49.90
24426;DHT22;12611;44.446;26.000;2023-09-19T12:35:32;28.50;50.30
24426;DHT22;12611;44.446;26.000;2023-09-19T12:38:03;28.50;49.90
24426;DHT22;12611;44.446;26.000;2023-09-19T12:40:34;28.50;49.90
24426;DHT22;12611;44.446;26.000;2023-09-19T12:43:07;28.50;50.20
24426;DHT22;12611;44.446;26.000;2023-09-19T12:45:36;28.50;50.40
24426;DHT22;12611;44.446;26.000;2023-09-19T12:48:19;28.50;50.10
24426;DHT22;12611;44.446;26.000;2023-09-19T12:51:02;28.50;50.30
24426;DHT22;12611;44.446;26.000;2023-09-19T12:53:34;28.50;50.10
24426;DHT22;12611;44.446;26.000;2023-09-19T12:56:09;28.50;50.30
24426;DHT22;12611;44.446;26.000;2023-09-19T12:58:50;28.50;50.10
24426;DHT22;12611;44.446;26.000;2023-09-19T13:01:21;28.50;50.10
24426;DHT22;12611;44.446;26.000;2023-09-19T13:04:13;28.50;50.30
24426;DHT22;12611;44.446;26.000;2023-09-19T13:06:45;28.50;50.40
24426;DHT22;12611;44.446;26.000;2023-09-19T13:09:16;28.50;49.90
24426;DHT22;12611;44.446;26.000;2023-09-19T13:15:53;28.60;50.50
24426;DHT22;12611;44.446;26.000;2023-09-19T13:18:26;28.60;50.40
24426;DHT22;12611;44.446;26.000;2023-09-19T13:21:07;28.60;50.60
24426;DHT22;12611;44.446;26.000;2023-09-19T13:23:37;28.60;50.10
24426;DHT22;12611;44.446;26.000;2023-09-19T13:26:07;28.60;49.80
24426;DHT22;12611;44.446;26.000;2023-09-19T13:28:38;28.60;50.10
24426;DHT22;12611;44.446;26.000;2023-09-19T13:31:09;28.60;50.10
24426;DHT22;12611;44.446;26.000;2023-09-19T13:33:43;28.60;49.50
24426;DHT22;12611;44.446;26.000;2023-09-19T13:36:20;28.60;48.80
24426;DHT22;12611;44.446;26.000;2023-09-19T13:38:54;28.60;49.20
24426;DHT22;12611;44.446;26.000;2023-09-19T13:41:24;28.60;49.30
24426;DHT22;12611;44.446;26.000;2023-09-19T13:43:53;28.70;49.40
24426;DHT22;12611;44.446;26.000;2023-09-19T13:46:25;28.70;49.50
24426;DHT22;12611;44.446;26.000;2023-09-19T13:48:54;28.80;49.60
24426;DHT22;12611;44.446;26.000;2023-09-19T13:51:28;28.80;50.00
24426;DHT22;12611;44.446;26.000;2023-09-19T13:53:57;28.70;49.00
24426;DHT22;12611;44.446;26.000;2023-09-19T13:56:26;28.70;48.80
24426;DHT22;12611;44.446;26.000;2023-09-19T13:59:00;28.70;49.00
24426;DHT22;12611;44.446;26.000;2023-09-19T14:01:34;28.60;48.40
24426;DHT22;12611;44.446;26.000;2023-09-19T14:04:10;28.60;48.60
24426;DHT22;12611;44.446;26.000;2023-09-19T14:06:51;28.60;48.60
24426;DHT22;12611;44.446;26.000;2023-09-19T14:09:21;28.60;48.70
24426;DHT22;12611;44.446;26.000;2023-09-19T14:11:50;28.60;48.90
24426;DHT22;12611;44.446;26.000;2023-09-19T14:14:20;28.60;48.90
24426;DHT22;12611;44.446;26.000;2023-09-19T14:16:51;28.60;48.70
24426;DHT22;12611;44.446;26.000;2023-09-19T14:19:20;28.60;48.90
24426;DHT22;12611;44.446;26.000;2023-09-19T14:21:51;28.60;49.10
24426;DHT22;12611;44.446;26.000;2023-09-19T14:24:23;28.50;48.90
24426;DHT22;12611;44.446;26.000;2023-09-19T14:26:51;28.50;49.00
24426;DHT22;12611;44.446;26.000;2023-09-19T14:29:20;28.40;49.10
24426;DHT22;12611;44.446;26.000;2023-09-19T14:31:48;28.40;49.90
24426;DHT22;12611;44.446;26.000;2023-09-19T14:34:20;28.40;49.20
24426;DHT22;12611;44.446;26.000;2023-09-19T14:36:49;28.30;49.40
24426;DHT22;12611;44.446;26.000;2023-09-19T14:39:18;28.30;49.60
24426;DHT22;12611;44.446;26.000;2023-09-19T14:41:47;28.20;49.50
24426;DHT22;12611;44.446;26.000;2023-09-19T14:44:16;28.20;49.50
24426;DHT22;12611;44.446;26.000;2023-09-19T14:46:45;28.10;49.60
24426;DHT22;12611;44.446;26.000;2023-09-19T14:49:13;28.10;49.70
24426;DHT22;12611;44.446;26.000;2023-09-19T14:51:45;28.10;49.90
24426;DHT22;12611;44.446;26.000;2023-09-19T14:54:14;28.00;50.10
24426;DHT22;12611;44.446;26.000;2023-09-19T14:56:43;28.00;50.10
24426;DHT22;12611;44.446;26.000;2023-09-19T14:59:12;27.90;50.00
24426;DHT22;12611;44.446;26.000;2023-09-19T15:01:43;27.90;50.20
24426;DHT22;12611;44.446;26.000;2023-09-19T15:04:12;27.80;50.20
24426;DHT22;12611;44.446;26.000;2023-09-19T15:06:41;27.80;50.30
24426;DHT22;12611;44.446;26.000;2023-09-19T15:09:12;27.70;50.30
24426;DHT22;12611;44.446;26.000;2023-09-19T15:11:44;27.60;50.50
24426;DHT22;12611;44.446;26.000;2023-09-19T15:14:13;27.60;50.60
24426;DHT22;12611;44.446;26.000;2023-09-19T15:16:43;27.50;50.70
24426;DHT22;12611;44.446;26.000;2023-09-19T15:19:12;27.50;50.80
24426;DHT22;12611;44.446;26.000;2023-09-19T15:21:42;27.40;51.00
24426;DHT22;12611;44.446;26.000;2023-09-19T15:24:12;27.40;51.20
24426;DHT22;12611;44.446;26.000;2023-09-19T15:26:42;27.30;51.20
24426;DHT22;12611;44.446;26.000;2023-09-19T15:29:12;27.30;51.70
24426;DHT22;12611;44.446;26.000;2023-09-19T15:31:44;27.20;52.10
24426;DHT22;12611;44.446;26.000;2023-09-19T15:34:13;27.20;52.30
24426;DHT22;12611;44.446;26.000;2023-09-19T15:36:43;27.10;52.60
24426;DHT22;12611;44.446;26.000;2023-09-19T15:39:15;27.10;52.80
24426;DHT22;12611;44.446;26.000;2023-09-19T15:41:45;27.00;52.90
24426;DHT22;12611;44.446;26.000;2023-09-19T15:44:16;27.00;53.10
24426;DHT22;12611;44.446;26.000;2023-09-19T15:46:49;27.00;53.20
24426;DHT22;12611;44.446;26.000;2023-09-19T15:49:18;27.00;53.40
24426;DHT22;12611;44.446;26.000;2023-09-19T15:51:47;26.90;53.60
24426;DHT22;12611;44.446;26.000;2023-09-19T15:54:18;26.80;53.60
24426;DHT22;12611;44.446;26.000;2023-09-19T15:56:46;26.80;53.70
24426;DHT22;12611;44.446;26.000;2023-09-19T15:59:15;26.80;53.70